• Join FlightAware (Why Join?)
  • Login
  • US Flag 
06:30AM EDT


 

Airport Tracker/Info


-or-


 

Live Flight TrackerFlight Track Log ✈ CPT7773 ✈ 15-Oct-2013 ✈ KCOD - KCPR

Flight Track Log - Related Links

Times and Time Zones

All times are in EDT time to prevent confusion due to time zone crossing. See the CPT7773 flight status page for this flight to view local times or setup timezone preferences in your user account.

Time Position Orientation Groundspeed Altitude Reporting Facility
EDT Latitude Longitude Course Direction KTS MPH feet Rate Location/Type
08:16PM 44.4005 -108.7458 121° Southeast  Level FlightAware Approximate
08:17PM 44.3765 -108.6904 121° Southeast  Level FlightAware Approximate
08:18PM 44.3457 -108.6419 133° Southeast  Level Estimated
08:19PM 44.3187 -108.5893 126° Southeast  Level FlightAware Approximate
08:20PM 44.2916 -108.5368 126° Southeast  Level FlightAware Approximate
08:21PM 44.2645 -108.4843 126° Southeast  Level FlightAware Approximate
08:22PM 44.2334 -108.4364 133° Southeast  Level Estimated
08:23PM 44.2043 -108.3860 129° Southeast  Level FlightAware Approximate
08:24PM 44.1751 -108.3358 129° Southeast  Level FlightAware Approximate
08:25PM 44.1460 -108.2856 129° Southeast  Level FlightAware Approximate
08:26PM 44.1168 -108.2354 129° Southeast  Level FlightAware Approximate
08:27PM 44.0854 -108.1879 120° Southeast  Level Estimated
08:28PM 44.0591 -108.1349 125° Southeast  Level FlightAware Approximate
08:29PM 44.0327 -108.0818 125° Southeast  Level FlightAware Approximate
08:30PM 44.0064 -108.0289 125° Southeast  Level FlightAware Approximate
08:31PM 43.9744 -107.9822 128° Southeast  Level Estimated
08:32PM 43.9472 -107.9301 126° Southeast  Level FlightAware Approximate
08:33PM 43.9200 -107.8780 126° Southeast  Level FlightAware Approximate
08:34PM 43.8928 -107.8260 126° Southeast  Level FlightAware Approximate
08:35PM 43.8655 -107.7740 126° Southeast  Level FlightAware Approximate
08:36PM 43.8382 -107.7221 126° Southeast  Level FlightAware Approximate
08:37PM 43.8109 -107.6702 126° Southeast  Level FlightAware Approximate
08:38PM 43.7778 -107.6252 125° Southeast  Level Estimated
08:38PM 43.8786 -107.7828 123° Southeast 171 197 11,000  Level Denver Center
08:39PM 43.7517 -107.5722 124° Southeast  Level FlightAware Approximate
08:40PM 43.7255 -107.5193 124° Southeast  Level FlightAware Approximate
08:40PM 43.8142 -107.6934 135° Southeast  Level Estimated
08:41PM 43.6919 -107.4751 124° Southeast  Level Estimated
08:42PM 43.6664 -107.4216 123° Southeast  Level FlightAware Approximate
08:43PM 43.6409 -107.3682 123° Southeast  Level FlightAware Approximate
08:47PM 43.5845 -107.3766 135° Southeast  Level Estimated
08:48PM 43.5516 -107.3316 135° Southeast  Level Estimated
08:48PM 43.4897 -107.0275 135° Southeast 188 216 11,000  Level Denver Center
08:49PM 43.5187 -107.2866 135° Southeast  Level Estimated
08:50PM 43.4858 -107.2416 135° Southeast  Level Estimated
08:50PM 43.4594 -106.9725 127° Southeast 168 193 11,000  Level Salt Lake Center
08:51PM 43.4528 -107.1967 135° Southeast  Level Estimated
08:51PM 43.4308 -106.9133 124° Southeast 167 192 11,000  Level Salt Lake Center
08:52PM 43.4199 -107.1519 135° Southeast  Level Estimated
08:52PM 43.4036 -106.8644 127° Southeast 167 192 11,000  Level Salt Lake Center
08:53PM 43.3869 -107.1070 135° Southeast  Level Estimated
08:53PM 43.3775 -106.8161 127° Southeast 166 191 10,900  Level Salt Lake Center
08:54PM 43.3539 -107.0623 135° Southeast  Level Estimated
08:54PM 43.3314 -106.7764 148° Southeast 166 191 10,400  Level Salt Lake Center
08:55PM 43.2858 -106.7483 156° South 174 200 10,000 -480 Descending Salt Lake Center
08:56PM 43.2356 -106.7119 152° Southeast 180 207 9,500 -480 Descending Salt Lake Center
08:57PM 43.1939 -106.6792 150° Southeast 181 208 9,100 -420 Descending Salt Lake Center
08:58PM 43.1464 -106.6392 148° Southeast 181 208 8,700 -420 Descending Salt Lake Center
08:59PM 43.1053 -106.6061 150° Southeast 180 207 8,300 -360 Descending Salt Lake Center
09:00PM 43.0650 -106.5697 147° Southeast 179 206 8,000 -360 Descending Denver Center
09:01PM 43.0244 -106.5328 146° Southeast 181 208 7,600 -540 Descending Denver Center
09:02PM 42.9786 -106.4933 148° Southeast 178 205 7,000 -480 Descending Denver Center
09:03PM 42.9414 -106.4589 146° Southeast 169 194 6,700 -300 Descending Denver Center